createdAt,value
2017-03-09T00:00:56.339Z,1009.33
2017-03-09T00:01:56.325Z,1009.34
2017-03-09T00:02:56.304Z,1009.35
2017-03-09T00:03:56.277Z,1009.38
2017-03-09T00:04:56.256Z,1009.37
2017-03-09T00:05:56.232Z,1009.39
2017-03-09T00:06:56.210Z,1009.4
2017-03-09T00:07:56.192Z,1009.4
2017-03-09T00:08:56.166Z,1009.46
2017-03-09T00:09:56.149Z,1009.45
2017-03-09T00:10:56.125Z,1009.47
2017-03-09T00:11:56.099Z,1009.47
2017-03-09T00:12:56.077Z,1009.52
2017-03-09T00:13:56.057Z,1009.55
2017-03-09T00:14:56.036Z,1009.6
2017-03-09T00:15:56.018Z,1009.59
2017-03-09T00:16:55.997Z,1009.58
2017-03-09T00:17:55.974Z,1009.65
2017-03-09T00:18:55.950Z,1009.67
2017-03-09T00:19:55.926Z,1009.71
2017-03-09T00:20:55.910Z,1009.73
2017-03-09T00:21:55.887Z,1009.8
2017-03-09T00:22:55.862Z,1009.82
2017-03-09T00:23:55.843Z,1009.82
2017-03-09T00:24:55.822Z,1009.81
2017-03-09T00:25:55.802Z,1009.81
2017-03-09T00:26:55.777Z,1009.85
2017-03-09T00:27:55.755Z,1009.83
2017-03-09T00:28:55.738Z,1009.81
2017-03-09T00:29:55.717Z,1009.88
2017-03-09T00:30:55.693Z,1009.92
2017-03-09T00:31:55.676Z,1009.94
2017-03-09T00:32:55.658Z,1010
2017-03-09T00:33:55.625Z,1010.03
2017-03-09T00:34:55.604Z,1010.03
2017-03-09T00:35:55.584Z,1010.02
2017-03-09T00:36:55.564Z,1010.02
2017-03-09T00:37:55.543Z,1010.06
2017-03-09T00:38:55.521Z,1010.1
2017-03-09T00:39:55.503Z,1010.13
2017-03-09T00:40:55.477Z,1010.12
2017-03-09T00:41:55.458Z,1010.16
2017-03-09T00:42:55.431Z,1010.13
2017-03-09T00:43:55.412Z,1010.18
2017-03-09T00:44:55.389Z,1010.15
2017-03-09T00:45:55.370Z,1010.14
2017-03-09T00:46:55.349Z,1010.16
2017-03-09T00:47:55.328Z,1010.14
2017-03-09T00:48:55.302Z,1010.18
2017-03-09T00:49:55.288Z,1010.19
2017-03-09T00:50:55.270Z,1010.2
2017-03-09T00:51:55.249Z,1010.2
2017-03-09T00:52:55.217Z,1010.19
2017-03-09T00:53:55.195Z,1010.21
2017-03-09T00:54:55.172Z,1010.25
2017-03-09T00:55:55.149Z,1010.25
2017-03-09T00:56:55.131Z,1010.23
2017-03-09T00:57:55.118Z,1010.27
2017-03-09T00:58:55.085Z,1010.22
2017-03-09T00:59:55.068Z,1010.23
2017-03-09T01:00:55.053Z,1010.26
2017-03-09T01:01:55.021Z,1010.28
2017-03-09T01:02:55.000Z,1010.33
2017-03-09T01:03:54.979Z,1010.32
2017-03-09T01:04:54.960Z,1010.33
2017-03-09T01:05:54.938Z,1010.33
2017-03-09T01:06:54.921Z,1010.29
2017-03-09T01:07:54.891Z,1010.28
2017-03-09T01:08:54.872Z,1010.26
2017-03-09T01:09:54.856Z,1010.21
2017-03-09T01:10:54.833Z,1010.27
2017-03-09T01:11:54.806Z,1010.26
2017-03-09T01:12:54.783Z,1010.27
2017-03-09T01:13:54.765Z,1010.28
2017-03-09T01:14:54.743Z,1010.31
2017-03-09T01:15:54.776Z,1010.35
2017-03-09T01:16:54.704Z,1010.38
2017-03-09T01:17:54.683Z,1010.39
2017-03-09T01:18:54.656Z,1010.4
2017-03-09T01:19:54.636Z,1010.45
2017-03-09T01:20:54.611Z,1010.42
2017-03-09T01:21:54.593Z,1010.46
2017-03-09T01:22:54.570Z,1010.42
2017-03-09T01:23:54.548Z,1010.45
2017-03-09T01:24:54.529Z,1010.44
2017-03-09T01:25:54.509Z,1010.45
2017-03-09T01:26:54.487Z,1010.42
2017-03-09T01:27:54.464Z,1010.5
2017-03-09T01:28:54.443Z,1010.46
2017-03-09T01:29:54.417Z,1010.45
2017-03-09T01:30:54.401Z,1010.46
2017-03-09T01:31:54.377Z,1010.48
2017-03-09T01:32:54.354Z,1010.45
2017-03-09T01:33:54.333Z,1010.47
2017-03-09T01:34:54.314Z,1010.46
2017-03-09T01:35:54.380Z,1010.5
2017-03-09T01:36:54.273Z,1010.52
2017-03-09T01:37:54.253Z,1010.47
2017-03-09T01:38:54.231Z,1010.46
2017-03-09T01:39:54.205Z,1010.42
2017-03-09T01:40:54.185Z,1010.4
2017-03-09T01:41:54.161Z,1010.39
2017-03-09T01:42:54.140Z,1010.39
2017-03-09T01:43:54.182Z,1010.42
2017-03-09T01:44:54.098Z,1010.44
2017-03-09T01:45:54.078Z,1010.47
2017-03-09T01:46:54.057Z,1010.41
2017-03-09T01:47:54.030Z,1010.45
2017-03-09T01:48:54.017Z,1010.5
2017-03-09T01:49:53.991Z,1010.5
2017-03-09T01:50:53.968Z,1010.5
2017-03-09T01:51:53.947Z,1010.48
2017-03-09T01:52:53.920Z,1010.47
2017-03-09T01:53:53.900Z,1010.46
2017-03-09T01:54:53.880Z,1010.45
2017-03-09T01:55:53.858Z,1010.41
2017-03-09T01:56:53.835Z,1010.44
2017-03-09T01:57:53.812Z,1010.46
2017-03-09T01:58:53.792Z,1010.49
2017-03-09T01:59:53.770Z,1010.49
2017-03-09T02:00:53.748Z,1010.51
2017-03-09T02:01:53.731Z,1010.45
2017-03-09T02:02:53.718Z,1010.47
2017-03-09T02:03:53.688Z,1010.48
2017-03-09T02:04:53.659Z,1010.5
2017-03-09T02:05:53.638Z,1010.52
2017-03-09T02:06:53.613Z,1010.51
2017-03-09T02:07:53.592Z,1010.48
2017-03-09T02:08:53.571Z,1010.5
2017-03-09T02:09:53.552Z,1010.51
2017-03-09T02:10:53.536Z,1010.5
2017-03-09T02:11:53.505Z,1010.49
2017-03-09T02:12:53.485Z,1010.48
2017-03-09T02:13:53.461Z,1010.47
2017-03-09T02:14:53.438Z,1010.42
2017-03-09T02:15:53.422Z,1010.44
2017-03-09T02:16:53.393Z,1010.45
2017-03-09T02:17:53.372Z,1010.47
2017-03-09T02:18:53.350Z,1010.46
2017-03-09T02:19:53.337Z,1010.48
2017-03-09T02:20:53.310Z,1010.52
2017-03-09T02:21:53.287Z,1010.49
2017-03-09T02:22:53.259Z,1010.5
2017-03-09T02:23:53.235Z,1010.51
2017-03-09T02:24:53.219Z,1010.49
2017-03-09T02:25:53.191Z,1010.51
2017-03-09T02:26:53.169Z,1010.48
2017-03-09T02:27:53.151Z,1010.48
2017-03-09T02:28:53.126Z,1010.48
2017-03-09T02:29:53.100Z,1010.4
2017-03-09T02:30:53.077Z,1010.4
2017-03-09T02:31:53.054Z,1010.37
2017-03-09T02:32:53.033Z,1010.38
2017-03-09T02:33:53.012Z,1010.37
2017-03-09T02:34:52.991Z,1010.33
2017-03-09T02:35:52.970Z,1010.37
2017-03-09T02:36:52.939Z,1010.33
2017-03-09T02:37:52.918Z,1010.32
2017-03-09T02:38:52.899Z,1010.33
2017-03-09T02:39:52.875Z,1010.33
2017-03-09T02:40:52.849Z,1010.35
2017-03-09T02:41:52.829Z,1010.35
2017-03-09T02:42:52.814Z,1010.36
2017-03-09T02:43:52.786Z,1010.34
2017-03-09T02:44:52.758Z,1010.37
2017-03-09T02:45:52.737Z,1010.41
2017-03-09T02:46:52.717Z,1010.42
2017-03-09T02:47:52.689Z,1010.4
2017-03-09T02:48:52.663Z,1010.41
2017-03-09T02:49:52.644Z,1010.43
2017-03-09T02:50:52.620Z,1010.44
2017-03-09T02:51:52.596Z,1010.49
2017-03-09T02:52:52.574Z,1010.49
2017-03-09T02:53:52.553Z,1010.52
2017-03-09T02:54:52.532Z,1010.53
2017-03-09T02:55:52.508Z,1010.55
2017-03-09T02:56:52.481Z,1010.53
2017-03-09T02:57:52.460Z,1010.55
2017-03-09T02:58:52.440Z,1010.59
2017-03-09T02:59:52.413Z,1010.61
2017-03-09T03:00:52.400Z,1010.64
2017-03-09T03:01:52.369Z,1010.64
2017-03-09T03:02:52.346Z,1010.7
2017-03-09T03:03:52.328Z,1010.65
2017-03-09T03:04:52.307Z,1010.64
2017-03-09T03:05:52.286Z,1010.67
2017-03-09T03:06:52.256Z,1010.63
2017-03-09T03:07:52.236Z,1010.69
2017-03-09T03:08:52.211Z,1010.7
2017-03-09T03:09:52.187Z,1010.71
2017-03-09T03:10:52.164Z,1010.7
2017-03-09T03:11:52.144Z,1010.7
2017-03-09T03:12:52.123Z,1010.69
2017-03-09T03:13:52.096Z,1010.72
2017-03-09T03:14:52.082Z,1010.74
2017-03-09T03:15:52.054Z,1010.78
2017-03-09T03:16:52.032Z,1010.82
2017-03-09T03:17:52.007Z,1010.79
2017-03-09T03:18:51.986Z,1010.8
2017-03-09T03:19:51.960Z,1010.8
2017-03-09T03:20:51.939Z,1010.74
2017-03-09T03:21:51.919Z,1010.69
2017-03-09T03:22:51.891Z,1010.73
2017-03-09T03:23:51.875Z,1010.75
2017-03-09T03:24:51.845Z,1010.75
2017-03-09T03:25:51.825Z,1010.72
2017-03-09T03:26:51.804Z,1010.72
2017-03-09T03:27:51.781Z,1010.73
2017-03-09T03:28:51.756Z,1010.78
2017-03-09T03:29:51.732Z,1010.77
2017-03-09T03:30:51.710Z,1010.79
2017-03-09T03:31:51.689Z,1010.77
2017-03-09T03:32:51.671Z,1010.69
2017-03-09T03:33:51.644Z,1010.69
2017-03-09T03:34:51.621Z,1010.68
2017-03-09T03:35:51.601Z,1010.68
2017-03-09T03:36:51.576Z,1010.65
2017-03-09T03:37:51.550Z,1010.61
2017-03-09T03:38:51.528Z,1010.63
2017-03-09T03:39:51.510Z,1010.65
2017-03-09T03:40:51.509Z,1010.58
2017-03-09T03:41:51.464Z,1010.64
2017-03-09T03:42:51.438Z,1010.63
2017-03-09T03:43:51.421Z,1010.68
2017-03-09T03:44:51.394Z,1010.67
2017-03-09T03:45:51.370Z,1010.7
2017-03-09T03:46:51.354Z,1010.69
2017-03-09T03:47:51.322Z,1010.71
2017-03-09T03:48:51.306Z,1010.72
2017-03-09T03:49:51.284Z,1010.74
2017-03-09T03:50:51.255Z,1010.77
2017-03-09T03:51:51.233Z,1010.8
2017-03-09T03:52:51.211Z,1010.77
2017-03-09T03:53:51.184Z,1010.76
2017-03-09T03:54:51.162Z,1010.73
2017-03-09T03:55:51.140Z,1010.69
2017-03-09T03:56:51.120Z,1010.75
2017-03-09T03:57:51.093Z,1010.68
2017-03-09T03:58:51.078Z,1010.73
2017-03-09T03:59:51.050Z,1010.71
2017-03-09T04:00:51.026Z,1010.69
2017-03-09T04:01:51.007Z,1010.64
2017-03-09T04:02:50.981Z,1010.62
2017-03-09T04:03:50.959Z,1010.6
2017-03-09T04:04:50.935Z,1010.63
2017-03-09T04:05:50.917Z,1010.62
2017-03-09T04:06:50.898Z,1010.62
2017-03-09T04:07:50.875Z,1010.6
2017-03-09T04:08:50.845Z,1010.59
2017-03-09T04:09:50.824Z,1010.54
2017-03-09T04:10:50.798Z,1010.56
2017-03-09T04:11:50.776Z,1010.54
2017-03-09T04:12:50.754Z,1010.55
2017-03-09T04:13:50.729Z,1010.59
2017-03-09T04:14:50.710Z,1010.59
2017-03-09T04:15:50.692Z,1010.6
2017-03-09T04:16:50.662Z,1010.64
2017-03-09T04:17:50.642Z,1010.6
2017-03-09T04:18:50.619Z,1010.59
2017-03-09T04:19:50.599Z,1010.59
2017-03-09T04:20:50.571Z,1010.63
2017-03-09T04:21:50.548Z,1010.58
2017-03-09T04:22:50.529Z,1010.63
2017-03-09T04:23:50.503Z,1010.59
2017-03-09T04:24:50.486Z,1010.67
2017-03-09T04:25:50.458Z,1010.62
2017-03-09T04:26:50.456Z,1010.61
2017-03-09T04:27:50.412Z,1010.63
2017-03-09T04:28:50.395Z,1010.65
2017-03-09T04:29:50.374Z,1010.67
2017-03-09T04:30:50.350Z,1010.69
2017-03-09T04:31:50.324Z,1010.67
2017-03-09T04:32:50.302Z,1010.66
2017-03-09T04:33:50.277Z,1010.69
2017-03-09T04:34:50.251Z,1010.65
2017-03-09T04:35:50.231Z,1010.64
2017-03-09T04:36:50.211Z,1010.72
2017-03-09T04:37:50.184Z,1010.71
2017-03-09T04:38:50.159Z,1010.77
2017-03-09T04:39:50.139Z,1010.82
2017-03-09T04:40:50.120Z,1010.81
2017-03-09T04:41:50.098Z,1010.78
2017-03-09T04:42:50.070Z,1010.78
2017-03-09T04:43:50.053Z,1010.75
2017-03-09T04:44:50.026Z,1010.67
2017-03-09T04:45:50.001Z,1010.62
2017-03-09T04:46:49.984Z,1010.65
2017-03-09T04:47:49.965Z,1010.64
2017-03-09T04:48:49.934Z,1010.67
2017-03-09T04:49:49.913Z,1010.68
2017-03-09T04:50:49.895Z,1010.68
2017-03-09T04:51:49.881Z,1010.64
2017-03-09T04:52:49.844Z,1010.58
2017-03-09T04:53:49.821Z,1010.5
2017-03-09T04:54:49.801Z,1010.42
2017-03-09T04:55:49.773Z,1010.34
2017-03-09T04:56:49.754Z,1010.37
2017-03-09T04:57:49.729Z,1010.41
2017-03-09T04:58:49.708Z,1010.43
2017-03-09T04:59:49.687Z,1010.5
2017-03-09T05:00:49.668Z,1010.53
2017-03-09T05:01:49.637Z,1010.52
2017-03-09T05:02:49.614Z,1010.52
2017-03-09T05:03:49.592Z,1010.51
2017-03-09T05:04:49.568Z,1010.48
2017-03-09T05:05:49.547Z,1010.5
2017-03-09T05:06:49.524Z,1010.57
2017-03-09T05:07:49.504Z,1010.64
2017-03-09T05:08:49.475Z,1010.65
2017-03-09T05:09:49.452Z,1010.71
2017-03-09T05:10:49.433Z,1010.7
2017-03-09T05:11:49.412Z,1010.68
2017-03-09T05:12:49.393Z,1010.67
2017-03-09T05:13:49.361Z,1010.65
2017-03-09T05:14:49.338Z,1010.63
2017-03-09T05:15:49.319Z,1010.62
2017-03-09T05:16:49.297Z,1010.65
2017-03-09T05:17:49.268Z,1010.69
2017-03-09T05:18:49.257Z,1010.71
2017-03-09T05:19:49.228Z,1010.75
2017-03-09T05:20:49.207Z,1010.72
2017-03-09T05:21:49.177Z,1010.74
2017-03-09T05:22:49.156Z,1010.69
2017-03-09T05:23:49.136Z,1010.73
2017-03-09T05:24:49.115Z,1010.73
2017-03-09T05:25:49.088Z,1010.66
2017-03-09T05:26:49.064Z,1010.69
2017-03-09T05:27:49.045Z,1010.74
2017-03-09T05:28:49.021Z,1010.77
2017-03-09T05:29:48.998Z,1010.8
2017-03-09T05:30:48.976Z,1010.83
2017-03-09T05:31:48.953Z,1010.86
2017-03-09T05:32:48.927Z,1010.82
2017-03-09T05:33:48.911Z,1010.85
2017-03-09T05:34:48.888Z,1010.85
2017-03-09T05:35:48.865Z,1010.79
2017-03-09T05:36:48.835Z,1010.86
2017-03-09T05:37:48.814Z,1010.78
2017-03-09T05:38:48.788Z,1010.79
2017-03-09T05:39:48.817Z,1010.73
2017-03-09T05:40:48.742Z,1010.67
2017-03-09T05:41:48.721Z,1010.67
2017-03-09T05:42:48.695Z,1010.64
2017-03-09T05:43:48.679Z,1010.7
2017-03-09T05:44:48.657Z,1010.71
2017-03-09T05:45:48.630Z,1010.79
2017-03-09T05:46:48.605Z,1010.8
2017-03-09T05:47:48.633Z,1010.8
2017-03-09T05:48:48.563Z,1010.79
2017-03-09T05:49:48.542Z,1010.66
2017-03-09T05:50:48.511Z,1010.7
2017-03-09T05:51:48.490Z,1010.68
2017-03-09T05:52:48.465Z,1010.7
2017-03-09T05:53:48.447Z,1010.69
2017-03-09T05:54:48.419Z,1010.67
2017-03-09T05:55:48.497Z,1010.65
2017-03-09T05:56:48.378Z,1010.62
2017-03-09T05:57:48.448Z,1010.58
2017-03-09T05:58:48.326Z,1010.58
2017-03-09T05:59:48.304Z,1010.54
2017-03-09T06:00:48.279Z,1010.56
2017-03-09T06:01:48.260Z,1010.58
2017-03-09T06:02:48.236Z,1010.55
2017-03-09T06:03:48.215Z,1010.58
2017-03-09T06:04:48.194Z,1010.59
2017-03-09T06:05:48.167Z,1010.6
2017-03-09T06:06:48.144Z,1010.59
2017-03-09T06:07:48.134Z,1010.56
2017-03-09T06:08:48.101Z,1010.59
2017-03-09T06:09:48.075Z,1010.61
2017-03-09T06:10:48.052Z,1010.61
2017-03-09T06:11:48.031Z,1010.62
2017-03-09T06:12:48.000Z,1010.65
2017-03-09T06:13:47.990Z,1010.62
2017-03-09T06:14:47.960Z,1010.65
2017-03-09T06:15:47.938Z,1010.61
2017-03-09T06:16:47.914Z,1010.63
2017-03-09T06:17:47.980Z,1010.64
2017-03-09T06:18:47.867Z,1010.63
2017-03-09T06:19:47.851Z,1010.64
2017-03-09T06:20:47.815Z,1010.6
2017-03-09T06:21:47.795Z,1010.62
2017-03-09T06:22:47.772Z,1010.62
2017-03-09T06:23:47.756Z,1010.54
2017-03-09T06:24:47.724Z,1010.56
2017-03-09T06:25:47.702Z,1010.52
2017-03-09T06:26:47.682Z,1010.48
2017-03-09T06:27:47.661Z,1010.44
2017-03-09T06:28:47.631Z,1010.42
2017-03-09T06:29:47.612Z,1010.39
2017-03-09T06:30:47.587Z,1010.37
2017-03-09T06:31:47.568Z,1010.36
2017-03-09T06:32:47.542Z,1010.36
2017-03-09T06:33:47.520Z,1010.36
2017-03-09T06:34:47.498Z,1010.35
2017-03-09T06:35:47.467Z,1010.37
2017-03-09T06:36:47.448Z,1010.39
2017-03-09T06:37:47.423Z,1010.4
2017-03-09T06:38:47.407Z,1010.37
2017-03-09T06:39:47.375Z,1010.33
2017-03-09T06:40:47.353Z,1010.32
2017-03-09T06:41:47.335Z,1010.28
2017-03-09T06:42:47.305Z,1010.26
2017-03-09T06:43:47.282Z,1010.23
2017-03-09T06:44:47.256Z,1010.24
2017-03-09T06:45:47.232Z,1010.25
2017-03-09T06:46:47.208Z,1010.23
2017-03-09T06:47:47.186Z,1010.25
2017-03-09T06:48:47.163Z,1010.22
2017-03-09T06:49:47.142Z,1010.23
2017-03-09T06:50:47.121Z,1010.26
2017-03-09T06:51:47.091Z,1010.24
2017-03-09T06:52:47.068Z,1010.19
2017-03-09T06:53:47.059Z,1010.22
2017-03-09T06:54:47.022Z,1010.23
2017-03-09T06:55:47.007Z,1010.27
2017-03-09T06:56:46.978Z,1010.31
2017-03-09T06:57:46.949Z,1010.29
2017-03-09T06:58:46.928Z,1010.31
2017-03-09T06:59:46.903Z,1010.32
2017-03-09T07:00:46.885Z,1010.34
2017-03-09T07:01:46.859Z,1010.34
2017-03-09T07:02:46.896Z,1010.33
2017-03-09T07:03:46.812Z,1010.28
2017-03-09T07:04:46.789Z,1010.24
2017-03-09T07:05:46.767Z,1010.19
2017-03-09T07:06:46.742Z,1010.18
2017-03-09T07:07:46.720Z,1010.17
2017-03-09T07:08:46.696Z,1010.19
2017-03-09T07:09:46.668Z,1010.17
2017-03-09T07:10:46.649Z,1010.18
2017-03-09T07:11:46.626Z,1010.2
2017-03-09T07:12:46.598Z,1010.19
2017-03-09T07:13:46.586Z,1010.2
2017-03-09T07:14:46.554Z,1010.2
2017-03-09T07:15:46.529Z,1010.19
2017-03-09T07:16:46.506Z,1010.17
2017-03-09T07:17:46.482Z,1010.16
2017-03-09T07:18:46.461Z,1010.12
2017-03-09T07:19:46.435Z,1010.14
2017-03-09T07:20:46.409Z,1010.09
2017-03-09T07:21:46.388Z,1010.1
2017-03-09T07:22:46.363Z,1010.11
2017-03-09T07:23:46.341Z,1010.14
2017-03-09T07:24:46.322Z,1010.19
2017-03-09T07:25:46.301Z,1010.23
2017-03-09T07:26:46.268Z,1010.23
2017-03-09T07:27:46.247Z,1010.26
2017-03-09T07:28:46.226Z,1010.28
2017-03-09T07:29:46.202Z,1010.32
2017-03-09T07:30:46.182Z,1010.31
2017-03-09T07:31:46.154Z,1010.33
2017-03-09T07:32:46.126Z,1010.3
2017-03-09T07:33:46.107Z,1010.27
2017-03-09T07:34:46.097Z,1010.24
2017-03-09T07:35:46.064Z,1010.24
2017-03-09T07:36:46.037Z,1010.16
2017-03-09T07:37:46.016Z,1010.16
2017-03-09T07:38:45.991Z,1010.13
2017-03-09T07:39:45.974Z,1010.11
2017-03-09T07:40:45.944Z,1010.08
2017-03-09T07:41:45.919Z,1010.03
2017-03-09T07:42:45.902Z,1010.01
2017-03-09T07:43:45.872Z,1010.02
2017-03-09T07:44:45.850Z,1009.98
2017-03-09T07:45:45.832Z,1010
2017-03-09T07:46:45.809Z,1009.99
2017-03-09T07:47:45.781Z,1009.98
2017-03-09T07:48:45.761Z,1009.93
2017-03-09T07:49:45.739Z,1009.94
2017-03-09T07:50:45.719Z,1009.93
2017-03-09T07:51:45.687Z,1009.97
2017-03-09T07:52:45.669Z,1009.99
2017-03-09T07:53:45.649Z,1009.97
2017-03-09T07:54:45.628Z,1009.97
2017-03-09T07:55:45.597Z,1009.94
2017-03-09T07:56:45.575Z,1009.92
2017-03-09T07:57:45.555Z,1009.94
2017-03-09T07:58:45.534Z,1009.97
2017-03-09T07:59:45.512Z,1009.94
2017-03-09T08:00:45.483Z,1009.96
2017-03-09T08:01:45.465Z,1009.99
2017-03-09T08:02:45.447Z,1009.95
2017-03-09T08:03:45.420Z,1009.94
2017-03-09T08:04:45.399Z,1009.94
2017-03-09T08:05:45.371Z,1009.93
2017-03-09T08:06:45.349Z,1009.85
2017-03-09T08:07:45.324Z,1009.88
2017-03-09T08:08:45.307Z,1009.84
2017-03-09T08:09:45.282Z,1009.83
2017-03-09T08:10:45.257Z,1009.88
2017-03-09T08:11:45.238Z,1009.86
2017-03-09T08:12:45.214Z,1009.89
2017-03-09T08:13:45.195Z,1009.88
2017-03-09T08:14:45.176Z,1009.91
2017-03-09T08:15:45.153Z,1009.9
2017-03-09T08:16:45.124Z,1009.93
2017-03-09T08:17:45.106Z,1009.91
2017-03-09T08:18:45.084Z,1009.92
2017-03-09T08:19:45.064Z,1010.03
2017-03-09T08:20:45.043Z,1010.1
2017-03-09T08:21:45.024Z,1010.03
2017-03-09T08:22:45.005Z,1010.16
2017-03-09T08:23:44.979Z,1010.16
2017-03-09T08:24:44.962Z,1010.21
2017-03-09T08:25:44.972Z,1010.21
2017-03-09T08:26:44.959Z,1010.19
2017-03-09T08:27:44.909Z,1010.21
2017-03-09T08:28:44.967Z,1010.19
2017-03-09T08:29:44.869Z,1010.2
2017-03-09T08:30:44.922Z,1010.21
2017-03-09T08:31:44.834Z,1010.22
2017-03-09T08:32:44.821Z,1010.25
2017-03-09T08:33:44.798Z,1010.29
2017-03-09T08:34:44.785Z,1010.27
2017-03-09T08:35:44.766Z,1010.32
2017-03-09T08:36:44.757Z,1010.26
2017-03-09T08:39:44.714Z,1010.32
2017-03-09T08:40:44.702Z,1010.33
2017-03-09T08:41:44.693Z,1010.37
2017-03-09T08:42:44.681Z,1010.4
2017-03-09T08:43:44.662Z,1010.31
2017-03-09T08:44:44.701Z,1010.32
2017-03-09T08:45:44.660Z,1010.3
2017-03-09T08:46:44.728Z,1010.27
2017-03-09T08:47:44.620Z,1010.28
2017-03-09T08:48:44.675Z,1010.25
2017-03-09T08:49:44.588Z,1010.33
2017-03-09T08:50:44.578Z,1010.33
2017-03-09T08:51:44.568Z,1010.28
2017-03-09T08:52:44.552Z,1010.32
2017-03-09T08:53:44.534Z,1010.33
2017-03-09T08:54:44.524Z,1010.31
2017-03-09T08:55:44.516Z,1010.29
2017-03-09T08:56:44.545Z,1010.31
2017-03-09T08:57:44.484Z,1010.28
2017-03-09T08:58:44.472Z,1010.26
2017-03-09T08:59:44.462Z,1010.24
2017-03-09T09:00:44.442Z,1010.22
2017-03-09T09:01:44.433Z,1010.16
2017-03-09T09:02:44.412Z,1010.12
2017-03-09T09:03:44.398Z,1010.07
2017-03-09T09:04:44.381Z,1010.04
2017-03-09T09:05:44.367Z,1010.03
2017-03-09T09:06:44.348Z,1010.01
2017-03-09T09:07:44.329Z,1010.04
2017-03-09T09:08:44.317Z,1009.99
2017-03-09T09:09:44.303Z,1010.04
2017-03-09T09:10:44.289Z,1010.12
2017-03-09T09:11:44.273Z,1010.12
2017-03-09T09:12:44.256Z,1010.15
2017-03-09T09:13:44.235Z,1010.09
2017-03-09T09:14:44.223Z,1010.08
2017-03-09T09:15:44.206Z,1010.05
2017-03-09T09:16:44.194Z,1010.05
2017-03-09T09:17:44.174Z,1010.05
2017-03-09T09:18:44.153Z,1009.99
2017-03-09T09:19:44.142Z,1009.97
2017-03-09T09:20:44.124Z,1009.95
2017-03-09T09:21:44.109Z,1009.97
2017-03-09T09:22:44.091Z,1009.85
2017-03-09T09:23:44.072Z,1009.83
2017-03-09T09:24:44.052Z,1009.85
2017-03-09T09:25:44.040Z,1009.83
2017-03-09T09:26:44.019Z,1009.85
2017-03-09T09:27:44.004Z,1009.78
2017-03-09T09:28:43.987Z,1009.73
2017-03-09T09:29:43.967Z,1009.68
2017-03-09T09:30:43.956Z,1009.64
2017-03-09T09:31:43.937Z,1009.66
2017-03-09T09:32:43.919Z,1009.66
2017-03-09T09:33:43.908Z,1009.67
2017-03-09T09:34:43.884Z,1009.66
2017-03-09T09:35:43.864Z,1009.62
2017-03-09T09:36:43.849Z,1009.66
2017-03-09T09:37:43.838Z,1009.61
2017-03-09T09:38:43.813Z,1009.57
2017-03-09T09:39:43.792Z,1009.59
2017-03-09T09:40:43.773Z,1009.6
2017-03-09T09:41:43.767Z,1009.63
2017-03-09T09:42:43.737Z,1009.6
2017-03-09T09:43:43.721Z,1009.57
2017-03-09T09:44:43.703Z,1009.57
2017-03-09T09:45:43.683Z,1009.57
2017-03-09T09:46:43.671Z,1009.58
2017-03-09T09:47:43.643Z,1009.53
2017-03-09T09:48:43.625Z,1009.51
2017-03-09T09:49:43.605Z,1009.45
2017-03-09T09:50:43.587Z,1009.52
2017-03-09T09:51:43.569Z,1009.42
2017-03-09T09:52:43.549Z,1009.46
2017-03-09T09:53:43.526Z,1009.49
2017-03-09T09:54:43.516Z,1009.53
2017-03-09T09:55:43.500Z,1009.54
2017-03-09T09:56:43.473Z,1009.54
2017-03-09T09:57:43.454Z,1009.46
2017-03-09T09:58:43.434Z,1009.45
2017-03-09T09:59:43.420Z,1009.41
2017-03-09T10:00:43.400Z,1009.38
2017-03-09T10:01:43.374Z,1009.38
2017-03-09T10:02:43.360Z,1009.41
2017-03-09T10:03:43.340Z,1009.44
2017-03-09T10:04:43.320Z,1009.46
2017-03-09T10:05:43.296Z,1009.45
2017-03-09T10:06:43.280Z,1009.44
2017-03-09T10:07:43.261Z,1009.42
2017-03-09T10:08:43.261Z,1009.37
2017-03-09T10:09:43.217Z,1009.39
2017-03-09T10:10:43.196Z,1009.42
2017-03-09T10:11:43.189Z,1009.46
2017-03-09T10:12:43.166Z,1009.41
2017-03-09T10:13:43.141Z,1009.45
2017-03-09T10:14:43.123Z,1009.42
2017-03-09T10:15:43.103Z,1009.4
2017-03-09T10:16:43.083Z,1009.45
2017-03-09T10:17:43.065Z,1009.51
2017-03-09T10:18:43.043Z,1009.48
2017-03-09T10:19:43.023Z,1009.52
2017-03-09T10:20:43.001Z,1009.54
2017-03-09T10:21:42.981Z,1009.5
2017-03-09T10:22:42.961Z,1009.51
2017-03-09T10:23:42.950Z,1009.49
2017-03-09T10:24:42.920Z,1009.49
2017-03-09T10:25:42.903Z,1009.41
2017-03-09T10:26:42.886Z,1009.45
2017-03-09T10:27:42.869Z,1009.42
2017-03-09T10:28:42.846Z,1009.42
2017-03-09T10:29:42.822Z,1009.35
2017-03-09T10:30:42.806Z,1009.34
2017-03-09T10:31:42.787Z,1009.39
2017-03-09T10:32:42.760Z,1009.35
2017-03-09T10:33:42.745Z,1009.39
2017-03-09T10:34:42.725Z,1009.4
2017-03-09T10:35:42.704Z,1009.39
2017-03-09T10:36:42.679Z,1009.37
2017-03-09T10:37:42.663Z,1009.38
2017-03-09T10:38:42.653Z,1009.37
2017-03-09T10:39:42.624Z,1009.4
2017-03-09T10:40:42.601Z,1009.39
2017-03-09T10:41:42.580Z,1009.37
2017-03-09T10:42:42.559Z,1009.37
2017-03-09T10:43:42.542Z,1009.37
2017-03-09T10:44:42.518Z,1009.35
2017-03-09T10:45:42.499Z,1009.32
2017-03-09T10:46:42.478Z,1009.36
2017-03-09T10:47:42.458Z,1009.33
2017-03-09T10:48:42.438Z,1009.33
2017-03-09T10:49:42.424Z,1009.3
2017-03-09T10:50:42.398Z,1009.28
2017-03-09T10:51:42.381Z,1009.33
2017-03-09T10:52:42.367Z,1009.3
2017-03-09T10:53:42.346Z,1009.27
2017-03-09T10:54:42.319Z,1009.34
2017-03-09T10:55:42.301Z,1009.28
2017-03-09T10:56:42.279Z,1009.33
2017-03-09T10:57:42.256Z,1009.34
2017-03-09T10:58:42.240Z,1009.3
2017-03-09T10:59:42.223Z,1009.28
2017-03-09T11:00:42.205Z,1009.28
2017-03-09T11:01:42.178Z,1009.31
2017-03-09T11:02:42.160Z,1009.38
2017-03-09T11:03:42.134Z,1009.31
2017-03-09T11:04:42.120Z,1009.28
2017-03-09T11:05:42.096Z,1009.31
2017-03-09T11:06:42.073Z,1009.31
2017-03-09T11:07:42.059Z,1009.29
2017-03-09T11:08:42.034Z,1009.34
2017-03-09T11:09:42.024Z,1009.34
2017-03-09T11:10:41.996Z,1009.28
2017-03-09T11:11:41.974Z,1009.22
2017-03-09T11:12:41.958Z,1009.28
2017-03-09T11:13:41.932Z,1009.26
2017-03-09T11:14:41.917Z,1009.23
2017-03-09T11:15:41.892Z,1009.2
2017-03-09T11:16:41.877Z,1009.22
2017-03-09T11:17:41.852Z,1009.19
2017-03-09T11:18:41.829Z,1009.2
2017-03-09T11:19:41.814Z,1009.16
2017-03-09T11:20:41.789Z,1009.15
2017-03-09T11:21:41.773Z,1009.13
2017-03-09T11:22:41.751Z,1009.12
2017-03-09T11:23:41.730Z,1009.09
2017-03-09T11:24:41.710Z,1009.13
2017-03-09T11:25:41.691Z,1009.12
2017-03-09T11:26:41.671Z,1009.12
2017-03-09T11:27:41.647Z,1009.12
2017-03-09T11:28:41.631Z,1009.13
2017-03-09T11:29:41.607Z,1009.08
2017-03-09T11:30:41.589Z,1009.08
2017-03-09T11:31:41.569Z,1009.04
2017-03-09T11:32:41.552Z,1009.03
2017-03-09T11:33:41.526Z,1009.01
2017-03-09T11:34:41.513Z,1009
2017-03-09T11:35:41.488Z,1009.01
2017-03-09T11:36:41.473Z,1008.97
2017-03-09T11:37:41.449Z,1009.01
2017-03-09T11:38:41.427Z,1009.05
2017-03-09T11:39:41.408Z,1009.03
2017-03-09T11:40:41.388Z,1009.03
2017-03-09T11:41:41.365Z,1008.98
2017-03-09T11:42:41.347Z,1009
2017-03-09T11:43:41.327Z,1009
2017-03-09T11:44:41.308Z,1008.95
2017-03-09T11:45:41.284Z,1008.98
2017-03-09T11:46:41.268Z,1009
2017-03-09T11:47:41.245Z,1009
2017-03-09T11:48:41.228Z,1009.01
2017-03-09T11:49:41.207Z,1008.99
2017-03-09T11:50:41.189Z,1008.99
2017-03-09T11:51:41.171Z,1008.92
2017-03-09T11:52:41.147Z,1008.94
2017-03-09T11:53:41.124Z,1008.94
2017-03-09T11:54:41.118Z,1009.04
2017-03-09T11:55:41.087Z,1008.99
2017-03-09T11:56:41.063Z,1008.97
2017-03-09T11:57:41.045Z,1008.92
2017-03-09T11:58:41.033Z,1008.9
2017-03-09T11:59:41.012Z,1008.87
2017-03-09T12:00:40.981Z,1008.88
2017-03-09T12:01:40.960Z,1008.84
2017-03-09T12:02:40.983Z,1008.81
2017-03-09T12:03:40.921Z,1008.83
2017-03-09T12:04:40.909Z,1008.8
2017-03-09T12:05:40.881Z,1008.78
2017-03-09T12:06:40.861Z,1008.84
2017-03-09T12:07:40.847Z,1008.82
2017-03-09T12:08:40.836Z,1008.82
2017-03-09T12:09:40.807Z,1008.82
2017-03-09T12:10:40.834Z,1008.81